Time;durP1;ratioP1;P1;durP2;ratioP2;P2;SDS_P1;SDS_P2;PMS_P1;PMS_P2;Temp;Humidity;BMP_temperature;BMP_pressure;BME280_temperature;BME280_humidity;BME280_pressure;Samples;Min_cycle;Max_cycle;Signal;HPM_P1;HPM_P2
2023/02/28 00:00:21;;;;;;;;;;;;;;;-3.95;75.86;102929.68;107879;1254;124530;-92
2023/02/28 00:03:14;;;;;;;;;;;;;;;-3.96;76.01;102927.54;107780;1255;68129;-91
2023/02/28 00:05:41;;;;;;;;;;;;;;;-3.96;76.03;102926.29;107688;1254;124324;-91
2023/02/28 00:08:09;;;;;;;;;;;;;;;-3.98;76.01;102929.02;108075;1254;59369;-91
2023/02/28 00:10:36;;;;;;;;;;;;;;;-4.00;76.01;102929.12;108049;1254;61334;-91
2023/02/28 00:13:04;;;;;;;;;;;;;;;-4.02;75.95;102928.46;107830;1254;124109;-92
2023/02/28 00:15:31;;;;;;;;;;;;;;;-4.05;75.94;102928.39;107882;1254;64776;-91
2023/02/28 00:18:05;;;;;;;;;;;;;;;-4.08;76.02;102926.06;107759;1254;124299;-81
2023/02/28 00:20:32;;;;;;;;;;;;;;;-4.11;76.01;102928.14;107534;1254;62252;-91
2023/02/28 00:23:02;;;;;;;;;;;;;;;-4.14;76.05;102927.28;107245;1254;59972;-92
2023/02/28 00:25:29;;;;;;;;;;;;;;;-4.18;76.24;102925.08;107379;1254;124681;-92
2023/02/28 00:27:57;;;;;;;;;;;;;;;-4.20;76.15;102930.95;107519;1254;66735;-91
2023/02/28 00:30:36;;;;;;;;;;;;;;;-4.23;76.24;102936.61;107410;1259;124111;-92
2023/02/28 00:33:09;;;;;;;;;;;;;;;-4.25;76.29;102938.09;107667;1253;61250;-92
2023/02/28 00:35:37;;;;;;;;;;;;;;;-4.27;76.25;102939.92;107451;1256;124413;-92
2023/02/28 00:38:25;;;;;;;;;;;;;;;-4.30;76.29;102948.33;107590;1254;74684;-92
2023/02/28 00:41:04;;;;;;;;;;;;;;;-4.34;76.25;102951.83;107688;1254;65779;-92
2023/02/28 00:43:46;;;;;;;;;;;;;;;-4.36;76.44;102958.04;107354;1256;125111;-93
2023/02/28 00:46:20;;;;;;;;;;;;;;;-4.38;76.44;102957.30;107447;1256;61277;-92
2023/02/28 00:48:51;;;;;;;;;;;;;;;-4.38;76.47;102952.89;107407;1254;125202;-91
2023/02/28 00:51:31;;;;;;;;;;;;;;;-4.38;76.59;102950.67;107639;1254;73741;-92
2023/02/28 00:54:02;;;;;;;;;;;;;;;-4.36;76.60;102954.95;107798;1254;124876;-93
2023/02/28 00:56:42;;;;;;;;;;;;;;;-4.35;76.73;102955.75;107722;1254;72559;-92
2023/02/28 00:59:16;;;;;;;;;;;;;;;-4.34;76.81;102962.80;107792;1254;61384;-93
2023/02/28 01:01:49;;;;;;;;;;;;;;;-4.33;76.67;102964.55;107844;1254;61240;-92
2023/02/28 01:04:17;;;;;;;;;;;;;;;-4.33;76.66;102967.51;107748;1254;73378;-92
2023/02/28 01:06:51;;;;;;;;;;;;;;;-4.31;76.73;102962.59;107633;1254;125096;-93
2023/02/28 01:09:19;;;;;;;;;;;;;;;-4.31;76.68;102964.71;107918;1256;71280;-92
2023/02/28 01:11:46;;;;;;;;;;;;;;;-4.30;76.76;102968.75;108213;1254;124992;-92
2023/02/28 01:14:15;;;;;;;;;;;;;;;-4.29;76.66;102963.50;108077;1254;59300;-92
2023/02/28 01:16:42;;;;;;;;;;;;;;;-4.29;76.64;102963.88;108046;1254;74168;-91
2023/02/28 01:19:09;;;;;;;;;;;;;;;-4.28;76.67;102961.36;107881;1254;124690;-91
2023/02/28 01:21:37;;;;;;;;;;;;;;;-4.28;76.61;102960.93;108063;1254;71360;-94
2023/02/28 01:24:05;;;;;;;;;;;;;;;-4.27;76.57;102959.13;107953;1259;124720;-82
2023/02/28 01:26:32;;;;;;;;;;;;;;;-4.27;76.43;102962.41;108286;1254;59751;-82
2023/02/28 01:28:59;;;;;;;;;;;;;;;-4.28;76.54;102961.92;107814;1254;72598;-82
2023/02/28 01:31:26;;;;;;;;;;;;;;;-4.28;76.55;102957.25;108025;1258;123980;-82
2023/02/28 01:33:53;;;;;;;;;;;;;;;-4.28;76.40;102955.86;108048;1254;73195;-82
2023/02/28 01:36:21;;;;;;;;;;;;;;;-4.30;76.49;102954.32;107932;1254;124714;-81
2023/02/28 01:38:48;;;;;;;;;;;;;;;-4.35;76.43;102946.36;108008;1259;59367;-82
2023/02/28 01:41:25;;;;;;;;;;;;;;;-4.36;76.35;102950.54;107682;1259;74384;-82
2023/02/28 01:43:54;;;;;;;;;;;;;;;-4.39;76.38;102946.35;108473;1254;67614;-82
2023/02/28 01:46:28;;;;;;;;;;;;;;;-4.45;76.16;102941.07;108217;1254;72409;-82
2023/02/28 01:49:18;;;;;;;;;;;;;;;-4.50;76.28;102944.77;107459;1254;124228;-82
2023/02/28 01:51:54;;;;;;;;;;;;;;;-4.55;76.28;102946.23;107691;1254;59317;-82
2023/02/28 01:54:25;;;;;;;;;;;;;;;-4.59;76.17;102944.88;107953;1254;124580;-82
2023/02/28 01:57:14;;;;;;;;;;;;;;;-4.62;76.28;102942.29;108005;1254;67374;-82
2023/02/28 01:59:51;;;;;;;;;;;;;;;-4.65;76.32;102939.64;107588;1256;124402;-92
2023/02/28 02:02:21;;;;;;;;;;;;;;;-4.70;76.23;102942.58;107621;1254;62315;-82
2023/02/28 02:04:55;;;;;;;;;;;;;;;-4.73;76.30;102946.71;107952;1254;61190;-92
2023/02/28 02:07:29;;;;;;;;;;;;;;;-4.77;76.27;102940.80;107481;1254;124579;-83
2023/02/28 02:10:00;;;;;;;;;;;;;;;-4.78;76.45;102936.88;107322;1254;65934;-82
2023/02/28 02:12:30;;;;;;;;;;;;;;;-4.81;76.43;102939.14;107094;1254;124290;-82
2023/02/28 02:15:00;;;;;;;;;;;;;;;-4.83;76.33;102935.02;107333;1254;61186;-82
2023/02/28 02:17:30;;;;;;;;;;;;;;;-4.87;76.48;102932.20;107309;1254;125537;-82
2023/02/28 02:20:11;;;;;;;;;;;;;;;-4.89;76.51;102938.47;107266;1254;73100;-82
2023/02/28 02:22:56;;;;;;;;;;;;;;;-4.90;76.61;102938.90;107438;1254;67065;-82
2023/02/28 02:25:29;;;;;;;;;;;;;;;-4.91;76.53;102937.95;107921;1254;125651;-82
2023/02/28 02:28:04;;;;;;;;;;;;;;;-4.91;76.62;102932.75;107845;1254;60535;-82
2023/02/28 02:30:31;;;;;;;;;;;;;;;-4.91;76.57;102931.23;107265;1255;125052;-82
2023/02/28 02:33:11;;;;;;;;;;;;;;;-4.90;76.73;102930.45;107549;1254;74696;-82
2023/02/28 02:35:40;;;;;;;;;;;;;;;-4.89;76.69;102929.08;107500;1257;126063;-82
2023/02/28 02:38:14;;;;;;;;;;;;;;;-4.88;76.58;102933.34;107516;1254;72645;-83
2023/02/28 02:41:09;;;;;;;;;;;;;;;-4.86;76.58;102935.87;107915;1259;59492;-83
2023/02/28 02:43:38;;;;;;;;;;;;;;;-4.86;76.71;102934.70;107897;1254;124942;-83
2023/02/28 02:46:10;;;;;;;;;;;;;;;-4.88;76.73;102932.13;107404;1254;73394;-82
2023/02/28 02:48:44;;;;;;;;;;;;;;;-4.86;76.76;102941.79;107615;1253;124961;-82
2023/02/28 02:51:17;;;;;;;;;;;;;;;-4.84;76.74;102943.36;107402;1259;71433;-91
2023/02/28 02:53:54;;;;;;;;;;;;;;;-4.83;76.91;102939.19;107222;1260;124561;-91
2023/02/28 02:56:24;;;;;;;;;;;;;;;-4.83;76.84;102943.17;107373;1254;61325;-91
2023/02/28 02:58:51;;;;;;;;;;;;;;;-4.82;76.87;102943.73;107435;1254;73386;-82
2023/02/28 03:01:27;;;;;;;;;;;;;;;-4.81;76.91;102947.15;107582;1255;124761;-82
2023/02/28 03:03:57;;;;;;;;;;;;;;;-4.80;76.96;102947.63;107525;1254;74057;-82
2023/02/28 03:06:24;;;;;;;;;;;;;;;-4.81;76.92;102953.72;107561;1254;124369;-82
2023/02/28 03:08:53;;;;;;;;;;;;;;;-4.81;76.95;102949.52;107655;1254;60768;-91
2023/02/28 03:11:29;;;;;;;;;;;;;;;-4.82;76.87;102949.92;107654;1254;74499;-91
2023/02/28 03:14:17;;;;;;;;;;;;;;;-4.84;76.67;102950.95;107808;1254;65621;-91
2023/02/28 03:16:52;;;;;;;;;;;;;;;-4.88;76.83;102952.63;107326;1254;73192;-92
2023/02/28 03:19:39;;;;;;;;;;;;;;;-4.90;76.71;102953.63;107379;1257;124364;-91
2023/02/28 03:22:17;;;;;;;;;;;;;;;-4.93;76.82;102960.98;107548;1255;59251;-90
2023/02/28 03:24:44;;;;;;;;;;;;;;;-4.95;76.83;102960.03;107820;1254;124301;-91
2023/02/28 03:27:46;;;;;;;;;;;;;;;-4.97;76.76;102960.86;107796;1254;65628;-92
2023/02/28 03:30:38;;;;;;;;;;;;;;;-4.99;76.81;102957.48;107502;1254;124377;-92
2023/02/28 03:33:07;;;;;;;;;;;;;;;-5.01;76.96;102958.25;107475;1254;60532;-83
2023/02/28 03:35:36;;;;;;;;;;;;;;;-5.02;77.08;102959.69;107448;1255;124485;-82
2023/02/28 03:38:13;;;;;;;;;;;;;;;-5.03;77.19;102961.45;107578;1257;73511;-82
2023/02/28 03:40:41;;;;;;;;;;;;;;;-5.03;77.14;102960.19;107573;1257;66999;-82
2023/02/28 03:43:10;;;;;;;;;;;;;;;-5.04;77.15;102960.08;107342;1259;124695;-82
2023/02/28 03:45:38;;;;;;;;;;;;;;;-5.06;77.15;102958.71;107398;1254;61280;-82
2023/02/28 03:48:17;;;;;;;;;;;;;;;-5.06;77.28;102955.56;107737;1259;125270;-82
2023/02/28 03:50:45;;;;;;;;;;;;;;;-5.08;77.42;102960.71;107750;1254;74745;-82
2023/02/28 03:53:19;;;;;;;;;;;;;;;-5.08;77.42;102963.16;107774;1255;65912;-82
2023/02/28 03:55:48;;;;;;;;;;;;;;;-5.07;77.56;102957.35;107662;1256;124934;-82
2023/02/28 03:58:17;;;;;;;;;;;;;;;-5.06;77.53;102956.85;107519;1260;61514;-83
2023/02/28 04:00:46;;;;;;;;;;;;;;;-5.05;77.63;102953.69;107461;1254;125199;-83
2023/02/28 04:03:13;;;;;;;;;;;;;;;-5.03;77.58;102951.82;107348;1256;73626;-83
2023/02/28 04:05:46;;;;;;;;;;;;;;;-5.02;77.53;102955.36;107588;1258;125181;-82
2023/02/28 04:08:21;;;;;;;;;;;;;;;-5.02;77.39;102953.55;107846;1255;72669;-83
2023/02/28 04:10:50;;;;;;;;;;;;;;;-5.01;77.53;102950.81;107819;1254;61301;-83
2023/02/28 04:13:20;;;;;;;;;;;;;;;-4.98;77.43;102953.27;107348;1260;124898;-83
2023/02/28 04:15:48;;;;;;;;;;;;;;;-4.98;77.50;102954.52;107632;1256;74729;-83
2023/02/28 04:18:17;;;;;;;;;;;;;;;-4.97;77.41;102952.98;107508;1257;125375;-83
2023/02/28 04:20:44;;;;;;;;;;;;;;;-4.95;77.47;102957.80;107583;1254;72656;-83
2023/02/28 04:23:17;;;;;;;;;;;;;;;-4.94;77.29;102956.32;107573;1254;61270;-83
2023/02/28 04:25:47;;;;;;;;;;;;;;;-4.94;77.19;102956.10;107428;1256;125094;-92
2023/02/28 04:28:36;;;;;;;;;;;;;;;-4.93;77.30;102961.46;107648;1256;74466;-92
2023/02/28 04:31:04;;;;;;;;;;;;;;;-4.92;77.34;102962.98;107438;1259;123737;-92
2023/02/28 04:33:56;;;;;;;;;;;;;;;-4.92;77.33;102965.58;107691;1254;72074;-93
2023/02/28 04:36:24;;;;;;;;;;;;;;;-4.92;77.04;102963.34;107293;1254;125049;-82
2023/02/28 04:38:54;;;;;;;;;;;;;;;-4.91;77.22;102959.02;107389;1257;61739;-83
2023/02/28 04:41:27;;;;;;;;;;;;;;;-4.91;77.16;102962.83;107519;1256;73105;-83
2023/02/28 04:43:54;;;;;;;;;;;;;;;-4.91;77.05;102959.05;107503;1257;67101;-83
2023/02/28 04:46:21;;;;;;;;;;;;;;;-4.92;77.07;102951.42;107602;1257;72719;-84
2023/02/28 04:48:50;;;;;;;;;;;;;;;-4.90;77.11;102948.52;107464;1259;124808;-84
2023/02/28 04:51:24;;;;;;;;;;;;;;;-4.90;77.10;102947.20;107774;1254;61308;-84
2023/02/28 04:53:51;;;;;;;;;;;;;;;-4.88;77.19;102951.65;107391;1254;125304;-83
2023/02/28 04:56:18;;;;;;;;;;;;;;;-4.87;77.10;102954.19;107380;1254;66755;-83
2023/02/28 04:58:46;;;;;;;;;;;;;;;-4.89;77.03;102952.73;107273;1254;71095;-86
2023/02/28 05:01:32;;;;;;;;;;;;;;;-4.92;76.97;102955.68;107268;1256;124740;-90
2023/02/28 05:04:01;;;;;;;;;;;;;;;-4.94;76.93;102955.44;107312;1257;60402;-84
2023/02/28 05:06:46;;;;;;;;;;;;;;;-4.94;76.95;102950.54;107460;1254;124821;-84
2023/02/28 05:12:41;;;;;;;;;;;;;;;-5.00;76.82;102957.19;107348;1255;124750;-92
2023/02/28 05:15:10;;;;;;;;;;;;;;;-5.04;76.86;102954.73;107462;1260;60084;-88
2023/02/28 05:17:37;;;;;;;;;;;;;;;-5.04;76.65;102960.30;107606;1257;124936;-91
2023/02/28 05:20:05;;;;;;;;;;;;;;;-5.05;76.70;102960.34;107973;1257;74686;-92
2023/02/28 05:22:33;;;;;;;;;;;;;;;-5.06;76.66;102961.75;107785;1256;65786;-83
2023/02/28 05:25:00;;;;;;;;;;;;;;;-5.08;76.64;102960.98;108745;1256;123908;-94
2023/02/28 05:27:30;;;;;;;;;;;;;;;-5.10;76.65;102958.00;108052;1257;60476;-92
2023/02/28 05:29:59;;;;;;;;;;;;;;;-5.12;76.71;102958.69;107722;1255;124428;-90
2023/02/28 05:32:26;;;;;;;;;;;;;;;-5.13;76.70;102959.54;107723;1257;74744;-91
2023/02/28 05:34:52;;;;;;;;;;;;;;;-5.15;76.69;102958.58;107768;1257;65867;-92
2023/02/28 05:37:20;;;;;;;;;;;;;;;-5.16;76.81;102963.23;107648;1256;124502;-89
2023/02/28 05:39:56;;;;;;;;;;;;;;;-5.16;76.92;102962.46;107904;1257;59649;-91
2023/02/28 05:42:24;;;;;;;;;;;;;;;-5.14;76.99;102961.77;107653;1254;124194;-91
2023/02/28 05:44:51;;;;;;;;;;;;;;;-5.14;76.99;102957.41;107904;1254;75794;-92
2023/02/28 05:47:21;;;;;;;;;;;;;;;-5.12;76.82;102956.91;107886;1257;66776;-89
2023/02/28 05:49:48;;;;;;;;;;;;;;;-5.11;76.78;102955.33;107989;1254;124712;-82
2023/02/28 05:52:15;;;;;;;;;;;;;;;-5.11;77.00;102954.45;108168;1257;59239;-83
2023/02/28 05:54:42;;;;;;;;;;;;;;;-5.13;76.94;102954.29;108238;1254;124122;-90
2023/02/28 05:57:10;;;;;;;;;;;;;;;-5.11;77.09;102948.46;108426;1255;74998;-91
2023/02/28 05:59:39;;;;;;;;;;;;;;;-5.08;77.24;102951.62;107864;1256;67067;-83
2023/02/28 06:02:13;;;;;;;;;;;;;;;-5.06;77.05;102951.13;107822;1254;72381;-91
2023/02/28 06:04:42;;;;;;;;;;;;;;;-5.06;76.95;102948.92;107908;1257;61289;-83
2023/02/28 06:07:17;;;;;;;;;;;;;;;-5.08;76.82;102949.10;108267;1254;124337;-83
2023/02/28 06:09:46;;;;;;;;;;;;;;;-5.07;76.86;102949.64;108017;1254;73524;-88
2023/02/28 06:12:13;;;;;;;;;;;;;;;-5.05;76.89;102945.66;107869;1257;124914;-81
2023/02/28 06:14:40;;;;;;;;;;;;;;;-5.02;76.90;102946.10;107954;1254;72715;-90
2023/02/28 06:17:08;;;;;;;;;;;;;;;-4.98;76.96;102946.95;107692;1254;60303;-82
2023/02/28 06:19:38;;;;;;;;;;;;;;;-4.92;77.12;102942.91;108014;1255;124757;-91
2023/02/28 06:22:06;;;;;;;;;;;;;;;-4.86;77.12;102945.48;108166;1255;73045;-89
2023/02/28 06:24:33;;;;;;;;;;;;;;;-4.79;77.18;102947.55;107751;1256;124336;-89
2023/02/28 06:27:04;;;;;;;;;;;;;;;-4.73;77.23;102947.13;107902;1254;71597;-90
2023/02/28 06:29:32;;;;;;;;;;;;;;;-4.66;77.22;102950.65;107714;1257;61144;-88
2023/02/28 06:32:02;;;;;;;;;;;;;;;-4.60;77.33;102944.75;107934;1259;61410;-90
2023/02/28 06:34:35;;;;;;;;;;;;;;;-4.54;77.32;102945.86;107692;1257;73538;-84
2023/02/28 06:37:04;;;;;;;;;;;;;;;-4.46;77.28;102947.63;107691;1254;124515;-91
2023/02/28 06:39:33;;;;;;;;;;;;;;;-4.38;77.41;102950.36;107849;1256;72535;-92
2023/02/28 06:42:02;;;;;;;;;;;;;;;-4.29;77.49;102946.23;107586;1257;124307;-91
2023/02/28 06:44:34;;;;;;;;;;;;;;;-4.19;77.48;102941.94;107406;1258;60197;-92
2023/02/28 06:47:11;;;;;;;;;;;;;;;-4.08;77.54;102942.66;107449;1259;73364;-90
2023/02/28 06:49:40;;;;;;;;;;;;;;;-3.99;77.52;102946.36;107228;1260;124133;-91
2023/02/28 06:55:18;;;;;;;;;;;;;;;-3.80;77.43;102945.55;107472;1257;124417;-88
2023/02/28 06:57:50;;;;;;;;;;;;;;;-3.71;77.50;102946.08;107535;1259;59382;-90
2023/02/28 07:00:23;;;;;;;;;;;;;;;-3.62;77.49;102940.94;107218;1263;124467;-85
2023/02/28 07:02:50;;;;;;;;;;;;;;;-3.52;77.50;102942.39;107447;1263;65811;-90
2023/02/28 07:05:18;;;;;;;;;;;;;;;-3.40;77.56;102939.81;107773;1257;71492;-91
2023/02/28 07:07:47;;;;;;;;;;;;;;;-3.30;77.61;102941.58;107567;1260;124667;-82
2023/02/28 07:10:16;;;;;;;;;;;;;;;-3.19;77.51;102937.88;107766;1258;61693;-83
2023/02/28 07:12:44;;;;;;;;;;;;;;;-3.06;77.52;102934.28;108167;1258;124945;-83
2023/02/28 07:15:18;;;;;;;;;;;;;;;-2.94;77.50;102934.10;108494;1257;65764;-93
2023/02/28 07:17:46;;;;;;;;;;;;;;;-2.80;77.40;102935.19;107867;1257;124917;-94
2023/02/28 07:20:19;;;;;;;;;;;;;;;-2.67;77.39;102940.40;108005;1257;61532;-94
2023/02/28 07:22:59;;;;;;;;;;;;;;;-2.54;77.47;102942.82;107962;1257;61182;-94
2023/02/28 07:25:28;;;;;;;;;;;;;;;-2.40;77.31;102942.41;108007;1254;124608;-83
2023/02/28 07:28:08;;;;;;;;;;;;;;;-2.26;77.32;102942.63;107703;1255;67046;-93
2023/02/28 07:30:35;;;;;;;;;;;;;;;-2.11;77.31;102943.46;107698;1257;124620;-92
2023/02/28 07:33:02;;;;;;;;;;;;;;;-1.99;77.26;102942.34;107937;1255;61271;-83
2023/02/28 07:35:29;;;;;;;;;;;;;;;-1.86;77.29;102946.36;108011;1257;61063;-90
2023/02/28 07:37:57;;;;;;;;;;;;;;;-1.73;77.24;102944.52;108288;1254;124754;-93
2023/02/28 07:40:24;;;;;;;;;;;;;;;-1.59;77.22;102943.44;108281;1257;65427;-92
2023/02/28 07:42:51;;;;;;;;;;;;;;;-1.46;77.24;102950.38;107759;1256;124655;-94
2023/02/28 07:45:19;;;;;;;;;;;;;;;-1.33;77.08;102954.88;108001;1255;61359;-93
2023/02/28 07:47:52;;;;;;;;;;;;;;;-1.22;77.03;102953.52;107630;1254;124735;-83
2023/02/28 07:50:19;;;;;;;;;;;;;;;-1.10;77.01;102954.46;107791;1257;75163;-93
2023/02/28 07:52:47;;;;;;;;;;;;;;;-0.97;76.92;102956.88;107867;1254;67010;-85
2023/02/28 07:55:34;;;;;;;;;;;;;;;-0.85;77.02;102959.85;107817;1256;124243;-92
2023/02/28 07:58:04;;;;;;;;;;;;;;;-0.73;76.74;102960.20;107829;1254;59981;-90
2023/02/28 08:00:31;;;;;;;;;;;;;;;-0.64;76.62;102957.19;107614;1260;124565;-84
2023/02/28 08:03:02;;;;;;;;;;;;;;;-0.54;76.57;102954.41;108130;1254;74452;-84
2023/02/28 08:05:30;;;;;;;;;;;;;;;-0.46;76.35;102954.17;108057;1257;66317;-83
2023/02/28 08:07:57;;;;;;;;;;;;;;;-0.35;76.39;102951.45;108822;1254;124404;-83
2023/02/28 08:10:24;;;;;;;;;;;;;;;-0.27;76.39;102946.92;109174;1254;59242;-84
2023/02/28 08:12:52;;;;;;;;;;;;;;;-0.20;76.39;102940.46;109053;1254;124581;-82
2023/02/28 08:15:20;;;;;;;;;;;;;;;-0.12;76.11;102942.30;107882;1254;74784;-82
2023/02/28 08:17:47;;;;;;;;;;;;;;;-0.04;76.13;102936.88;107729;1258;124804;-82
2023/02/28 08:20:21;;;;;;;;;;;;;;;0.05;76.19;102934.70;108004;1254;73037;-82
2023/02/28 08:22:48;;;;;;;;;;;;;;;0.13;76.08;102925.67;107923;1256;61147;-83
2023/02/28 08:25:17;;;;;;;;;;;;;;;0.21;75.98;102924.09;107971;1259;124007;-83
2023/02/28 08:27:44;;;;;;;;;;;;;;;0.29;76.02;102921.20;107804;1257;73645;-82
2023/02/28 08:30:13;;;;;;;;;;;;;;;0.36;76.02;102915.88;107921;1259;124420;-83
2023/02/28 08:32:40;;;;;;;;;;;;;;;0.43;75.92;102918.02;107902;1255;72737;-83
2023/02/28 08:35:08;;;;;;;;;;;;;;;0.51;75.73;102919.31;108188;1255;61321;-82
2023/02/28 08:37:35;;;;;;;;;;;;;;;0.58;75.81;102914.16;108074;1259;124400;-83
2023/02/28 08:40:08;;;;;;;;;;;;;;;0.65;75.71;102910.04;108068;1258;75161;-83
2023/02/28 08:42:37;;;;;;;;;;;;;;;0.73;75.66;102908.72;107706;1254;124472;-84
2023/02/28 08:45:07;;;;;;;;;;;;;;;0.80;75.54;102908.38;108050;1255;71423;-83
2023/02/28 08:47:35;;;;;;;;;;;;;;;0.88;75.34;102910.72;107516;1259;124067;-83
2023/02/28 08:50:03;;;;;;;;;;;;;;;0.96;75.38;102911.45;107457;1255;62195;-86
2023/02/28 08:52:30;;;;;;;;;;;;;;;1.04;75.35;102911.55;107704;1255;74863;-83
2023/02/28 08:55:01;;;;;;;;;;;;;;;1.12;75.12;102911.88;107471;1259;124387;-83
2023/02/28 08:57:28;;;;;;;;;;;;;;;1.21;75.25;102914.21;107742;1259;71517;-83
2023/02/28 08:59:56;;;;;;;;;;;;;;;1.28;75.07;102912.52;107739;1254;123961;-83
2023/02/28 09:02:25;;;;;;;;;;;;;;;1.35;74.79;102910.45;107751;1255;60377;-83
2023/02/28 09:04:52;;;;;;;;;;;;;;;1.42;74.63;102909.00;109044;1254;73409;-83
2023/02/28 09:07:20;;;;;;;;;;;;;;;1.50;74.53;102909.95;109047;1255;124869;-81
2023/02/28 09:09:57;;;;;;;;;;;;;;;1.59;74.51;102915.81;107815;1255;73160;-82
2023/02/28 09:12:52;;;;;;;;;;;;;;;;;;;;;
2023/02/28 09:18:50;;;;;;;;;;;;;;;1.89;74.07;102911.10;108047;1254;124377;-95
2023/02/28 09:21:25;;;;;;;;;;;;;;;1.98;74.01;102911.77;108046;1254;65917;-83
2023/02/28 09:23:52;;;;;;;;;;;;;;;2.09;74.06;102913.11;108071;1257;124502;-84
2023/02/28 09:26:23;;;;;;;;;;;;;;;2.19;73.87;102914.21;107666;1261;59829;-83
2023/02/28 09:28:50;;;;;;;;;;;;;;;2.28;73.55;102918.34;107813;1257;60359;-94
2023/02/28 09:31:22;;;;;;;;;;;;;;;2.35;73.28;102917.30;107746;1255;124691;-93
2023/02/28 09:33:50;;;;;;;;;;;;;;;2.45;73.37;102916.66;107714;1254;66781;-94
2023/02/28 09:36:17;;;;;;;;;;;;;;;2.52;73.04;102925.29;107859;1258;125089;-83
2023/02/28 09:38:46;;;;;;;;;;;;;;;2.60;72.94;102919.23;107951;1262;62280;-83
2023/02/28 09:41:19;;;;;;;;;;;;;;;2.68;72.71;102920.30;107534;1254;261348;-84
2023/02/28 09:43:50;;;;;;;;;;;;;;;2.74;72.55;102917.56;107455;1261;123916;-92
2023/02/28 09:46:36;;;;;;;;;;;;;;;2.80;72.45;102919.35;107846;1259;67037;-94
2023/02/28 09:49:25;;;;;;;;;;;;;;;2.86;72.19;102924.08;107951;1259;123860;-94
2023/02/28 09:52:04;;;;;;;;;;;;;;;2.91;72.04;102922.40;107869;1254;61181;-93
2023/02/28 09:54:32;;;;;;;;;;;;;;;2.97;71.89;102926.59;107936;1255;124159;-93
2023/02/28 09:57:05;;;;;;;;;;;;;;;3.01;71.78;102924.06;108142;1254;74703;-93
2023/02/28 09:59:45;;;;;;;;;;;;;;;3.07;71.57;102921.06;108079;1254;65864;-93
2023/02/28 10:02:37;;;;;;;;;;;;;;;3.11;71.49;102917.14;107666;1259;72402;-93
2023/02/28 10:05:14;;;;;;;;;;;;;;;3.18;71.18;102907.27;107788;1259;59743;-94
2023/02/28 10:08:04;;;;;;;;;;;;;;;3.23;71.11;102907.44;107630;1260;124029;-94
2023/02/28 10:10:41;;;;;;;;;;;;;;;3.25;70.51;102903.62;107737;1260;73795;-92
2023/02/28 10:13:19;;;;;;;;;;;;;;;3.27;70.37;102898.95;108005;1259;124503;-92
2023/02/28 10:15:47;;;;;;;;;;;;;;;3.30;70.16;102895.72;107952;1254;73854;-93
2023/02/28 10:18:14;;;;;;;;;;;;;;;3.32;69.91;102900.20;107718;1260;124227;-90
2023/02/28 10:20:41;;;;;;;;;;;;;;;3.35;69.84;102899.63;108023;1254;61079;-90
2023/02/28 10:23:13;;;;;;;;;;;;;;;3.37;69.53;102900.98;108089;1259;83489;-82
2023/02/28 10:25:42;;;;;;;;;;;;;;;3.37;69.21;102899.13;107875;1262;123496;-82
2023/02/28 10:28:09;;;;;;;;;;;;;;;3.38;69.07;102899.22;107764;1264;72986;-82
2023/02/28 10:30:43;;;;;;;;;;;;;;;3.41;68.95;102898.23;107691;1262;125003;-83
2023/02/28 10:33:30;;;;;;;;;;;;;;;3.43;68.91;102899.79;108040;1259;59511;-84
2023/02/28 10:35:57;;;;;;;;;;;;;;;3.47;68.52;102904.66;107614;1262;126202;-83
2023/02/28 10:38:34;;;;;;;;;;;;;;;3.48;68.46;102898.75;107807;1260;68733;-83
2023/02/28 10:41:08;;;;;;;;;;;;;;;3.50;68.29;102898.19;107953;1258;72754;-84
2023/02/28 10:43:35;;;;;;;;;;;;;;;3.52;68.18;102894.37;107878;1264;124736;-83
2023/02/28 10:46:12;;;;;;;;;;;;;;;3.53;67.81;102892.00;108020;1260;60336;-84
2023/02/28 10:48:39;;;;;;;;;;;;;;;3.55;67.71;102889.15;108012;1257;123951;-84
2023/02/28 10:51:07;;;;;;;;;;;;;;;3.54;67.34;102889.83;107678;1263;66770;-84
2023/02/28 10:53:39;;;;;;;;;;;;;;;3.55;67.55;102888.56;107494;1258;73791;-83
2023/02/28 10:56:12;;;;;;;;;;;;;;;3.58;67.53;102887.23;108536;1257;123798;-83
2023/02/28 10:59:08;;;;;;;;;;;;;;;3.62;67.43;102882.75;108787;1263;61079;-83
2023/02/28 11:01:39;;;;;;;;;;;;;;;3.67;67.29;102880.37;107903;1264;124110;-83
2023/02/28 11:04:19;;;;;;;;;;;;;;;3.71;67.14;102882.83;108203;1278;67115;-83
2023/02/28 11:06:46;;;;;;;;;;;;;;;3.74;67.10;102880.83;108184;1270;125176;-83
2023/02/28 11:09:18;;;;;;;;;;;;;;;3.77;66.82;102877.29;108293;1264;59545;-83
2023/02/28 11:11:45;;;;;;;;;;;;;;;3.80;66.77;102878.74;108159;1270;59230;-83
2023/02/28 11:14:18;;;;;;;;;;;;;;;3.84;66.56;102872.44;108198;1269;125556;-83
2023/02/28 11:16:45;;;;;;;;;;;;;;;3.86;66.55;102868.83;108328;1264;68129;-83
2023/02/28 11:19:20;;;;;;;;;;;;;;;3.89;66.31;102865.11;108206;1263;125760;-83
2023/02/28 11:21:52;;;;;;;;;;;;;;;3.92;66.48;102867.21;108261;1264;59595;-83
2023/02/28 11:24:24;;;;;;;;;;;;;;;3.96;66.31;102862.89;108209;1264;125165;-83
2023/02/28 11:26:51;;;;;;;;;;;;;;;4.00;66.17;102862.51;108265;1264;74792;-83
2023/02/28 11:29:18;;;;;;;;;;;;;;;4.02;66.01;102865.02;108287;1264;65960;-83
2023/02/28 11:32:08;;;;;;;;;;;;;;;4.05;65.89;102862.11;108159;1266;124937;-83
2023/02/28 11:34:35;;;;;;;;;;;;;;;4.08;65.80;102858.52;108364;1268;59559;-84
2023/02/28 11:37:05;;;;;;;;;;;;;;;4.13;65.79;102855.94;108204;1264;123814;-83
2023/02/28 11:39:32;;;;;;;;;;;;;;;4.16;65.88;102850.04;108688;1257;74680;-83
2023/02/28 11:42:03;;;;;;;;;;;;;;;4.18;65.62;102849.16;108540;1257;124658;-83
2023/02/28 11:44:46;;;;;;;;;;;;;;;4.20;65.53;102843.22;108674;1257;73464;-84
2023/02/28 11:47:17;;;;;;;;;;;;;;;4.25;65.47;102844.13;108638;1257;60051;-84
2023/02/28 11:49:50;;;;;;;;;;;;;;;4.29;65.19;102845.73;108568;1257;123865;-83
2023/02/28 11:52:21;;;;;;;;;;;;;;;4.33;65.19;102839.09;108651;1257;73163;-84
2023/02/28 11:54:59;;;;;;;;;;;;;;;4.38;65.15;102833.78;108568;1262;124475;-82
2023/02/28 11:57:29;;;;;;;;;;;;;;;4.42;64.86;102830.27;108634;1257;71444;-82
2023/02/28 12:00:04;;;;;;;;;;;;;;;4.43;64.53;102824.48;108471;1258;124483;-82
2023/02/28 12:02:38;;;;;;;;;;;;;;;4.47;64.47;102820.80;108641;1262;59576;-82
2023/02/28 12:05:05;;;;;;;;;;;;;;;4.49;64.21;102818.35;108748;1257;74688;-82
2023/02/28 12:07:36;;;;;;;;;;;;;;;4.50;64.12;102812.20;108571;1257;125292;-83
2023/02/28 12:10:12;;;;;;;;;;;;;;;4.51;64.07;102801.80;108569;1258;71142;-83
2023/02/28 12:12:43;;;;;;;;;;;;;;;4.52;64.01;102796.81;108516;1261;124024;-82
2023/02/28 12:15:19;;;;;;;;;;;;;;;4.55;63.81;102797.23;108745;1257;59396;-83
2023/02/28 12:17:46;;;;;;;;;;;;;;;4.56;63.44;102792.64;108660;1257;74202;-83
2023/02/28 12:20:28;;;;;;;;;;;;;;;4.57;63.18;102794.98;108621;1257;124896;-83
2023/02/28 12:23:00;;;;;;;;;;;;;;;4.57;63.14;102798.14;108670;1263;72725;-83
2023/02/28 12:25:46;;;;;;;;;;;;;;;4.59;63.04;102798.83;108634;1257;124304;-83
2023/02/28 12:28:14;;;;;;;;;;;;;;;4.62;63.00;102797.86;108693;1257;59181;-83
2023/02/28 12:30:45;;;;;;;;;;;;;;;4.64;62.86;102794.73;108651;1261;124028;-83
2023/02/28 12:33:13;;;;;;;;;;;;;;;4.66;62.84;102791.40;108675;1257;66200;-83
2023/02/28 12:35:43;;;;;;;;;;;;;;;4.67;62.60;102792.39;108734;1257;72741;-83
2023/02/28 12:38:29;;;;;;;;;;;;;;;4.67;62.45;102794.50;108644;1257;124863;-83
2023/02/28 12:40:57;;;;;;;;;;;;;;;4.69;62.41;102795.95;108635;1259;59455;-83
2023/02/28 12:43:25;;;;;;;;;;;;;;;4.70;62.33;102796.77;108483;1258;124594;-83
2023/02/28 12:45:53;;;;;;;;;;;;;;;4.71;62.27;102791.30;108643;1257;65025;-83
2023/02/28 12:48:47;;;;;;;;;;;;;;;4.74;62.32;102792.70;108535;1260;124141;-83
2023/02/28 12:51:15;;;;;;;;;;;;;;;4.76;62.27;102783.70;108528;1260;59403;-83
2023/02/28 12:53:45;;;;;;;;;;;;;;;4.78;62.27;102781.05;108624;1257;61287;-83
2023/02/28 12:56:15;;;;;;;;;;;;;;;4.80;62.16;102777.90;108622;1258;124784;-83
2023/02/28 12:58:45;;;;;;;;;;;;;;;4.81;62.06;102772.27;108718;1258;65792;-83
2023/02/28 13:01:17;;;;;;;;;;;;;;;4.80;61.91;102771.64;108659;1257;125218;-83